Tiempo atmosférico en la estación meteorológica de Becerreá, Lugo (1080 m.)

Fecha
DESCASC
Temp. máxima en grados centígrados (hora)
DESCASC
Temp. mínima en grados centígrados (hora)
DESCASC
Temp. media en grados centígrados
DESCASC
Racha de viento máxima en m/sg (hora)
DESCASC
Velocidad máxima media en intervalos de 10 minutos(hora)
DESCASC
Precipitaciones diarias en mm
DESCASC
Precipitaciones de 00:00 a 06:00 en mm
DESCASC
Precipitaciones de 06:00 a 12:00 en mm
DESCASC
Precipitaciones de 12:00 a 18:00 en mm
DESCASC
Precipitaciones de 18:00 a 24:00 en mm
DESCASC
22-10-2017 11.3 (18:00) 3.5 (04:40) 7.4 5 (23:00) 3.06 (23:10) 0 0 0 0 0
21-10-2017 13 (00:00) 4.6 (23:59) 8.8 14.17 (01:20) 6.39 (01:20) 11.2 11.2 0 0 0
20-10-2017 17 (17:00) 9 (08:50) 13 13.33 (19:40) 5.83 (18:50) 0 0 0 0 0
19-10-2017 11.4 (20:50) 5.6 (00:00) 8.5 10.83 (16:20) 5.28 (16:20) 3.2 0 0.2 1 2
18-10-2017 9.2 (12:30) 5.9 (00:00) 7.5 11.11 (06:00) 5.56 (06:00) 13.4 2 0.2 10.8 0.4
17-10-2017 16.2 (02:10) 8.3 (00:00) 12.3 10 (06:40) 5.56 (06:40) 7.4 0.2 6.6 0 0.6
16-10-2017 22.1 (00:30) 11.4 (00:00) 16.8 13.89 (04:20) 6.67 (00:20) 0 0 0 0 0
15-10-2017 25.3 (14:30) 19.4 (00:00) 22.3 11.67 (15:00) 5.83 (07:10) 0 0 0 0 0
14-10-2017 24.5 (16:50) 12.7 (00:00) 18.6 9.72 (23:30) 5.28 (21:50) 0 0 0 0 0
13-10-2017 21.7 (17:00) 12.7 (00:00) 17.2 6.67 (16:20) 3.89 (16:20) 0 0 0 0 0
12-10-2017 23.4 (16:40) 11.9 (00:00) 17.6 6.39 (17:50) 4.17 (21:50) 0 0 0 0 0
11-10-2017 21.3 (17:10) 11.9 (00:00) 16.6 8.89 (14:50) 3.61 (14:50) 0 0 0 0 0
10-10-2017 23.1 (17:00) 12.8 (00:00) 18 5.83 (17:10) 2.78 (17:10) 0 0 0 0 0
09-10-2017 21.4 (16:10) 12 (00:00) 16.7 5 (18:40) 2.78 (18:40) 0 0 0 0 0
08-10-2017 23 (16:20) 12.9 (00:00) 17.9 5.28 (18:10) 2.78 (18:10) 0 0 0 0 0
07-10-2017 23.6 (17:50) 11 (00:00) 17.3 5 (08:20) 3.06 (08:20) 0 0 0 0 0
06-10-2017 21.3 (16:40) 9.3 (00:00) 15.3 7.5 (11:50) 2.5 (18:20) 0 0 0 0 0
05-10-2017 23.1 (17:10) 12.6 (00:00) 17.9 6.39 (07:10) 4.17 (07:10) 0 0 0 0 0
04-10-2017 23.3 (17:40) 11.3 (00:00) 17.3 8.89 (04:40) 5 (04:50) 0 0 0 0 0
03-10-2017 21.5 (14:30) 12.4 (00:00) 16.9 6.39 (16:30) 3.61 (16:30) 0 0 0 0 0
02-10-2017 23.9 (17:00) 13.4 (00:00) 18.6 5.83 (18:20) 3.33 (18:30) 0 0 0 0 0
01-10-2017 18.8 (17:10) 11 (00:00) 14.9 3.89 (20:50) 2.5 (21:50) 0.4 0 0.4 0 0
30-09-2017 14.8 (17:00) 10 (00:00) 12.4 5.56 (14:50) 3.06 (14:50) 0.4 0 0.2 0.2 0
29-09-2017 17.2 (17:10) 12.2 (00:00) 14.7 6.39 (02:50) 3.61 (13:00) 0 0 0 0 0
28-09-2017 22.5 (17:00) 13.7 (00:00) 18.1 7.78 (15:30) 3.61 (19:40) 0 0 0 0 0
27-09-2017 20.7 (17:40) 11.1 (00:00) 15.9 8.33 (17:20) 3.89 (21:00) 0 0 0 0 0
26-09-2017 18.7 (18:10) 8.3 (00:00) 13.5 6.67 (16:00) 3.61 (16:30) 0 0 0 0 0
25-09-2017 15.8 (17:10) 9.3 (00:00) 12.6 6.39 (04:40) 2.5 (07:10) 0.4 0.4 0 0 0
24-09-2017 20.2 (12:30) 9.6 (00:00) 14.9 11.39 (19:50) 4.72 (19:50) 10.4 0 0 0 10.4
23-09-2017 21.3 (15:20) 12.3 (00:00) 16.8 10 (17:50) 4.44 (18:40) 0 0 0 0 0

Gráficas

Temp. máximas Temp. mínimas Temp. medias Precipitaciones Rachas de viento máximas Velocidades máximas media en intervalos de 10 minutos

Datos horarios

Fecha y hora oficial Temperatura (ºC) Velocidad del viento (km/h) Dirección del viento Racha (km/h) Dirección de racha Precipitación (mm) Presión (hPa) Tendencia (hPa) Humedad (%)
2017-10-22 23:00:00 7.4 10 Sudeste 18 Sudeste 0 -- -- 85
2017-10-22 22:00:00 6.8 2 Este 10 Oeste 0 -- -- 88
2017-10-22 21:00:00 7.3 0 Calma 7 Sudeste 0 -- -- 84
2017-10-22 20:00:00 8 4 Sur 8 Sudeste 0 -- -- 80
2017-10-22 19:00:00 10.7 0 Calma 7 Nordeste 0 -- -- 69
2017-10-22 18:00:00 11.3 3 Noroeste 9 Noroeste 0 -- -- 66
2017-10-22 17:00:00 10.6 4 Norte 9 Norte 0 -- -- 69
2017-10-22 16:00:00 10.2 4 Norte 10 Norte 0 -- -- 71
2017-10-22 15:00:00 10.2 3 Nordeste 13 Este 0 -- -- 73
2017-10-22 14:00:00 10.1 4 Este 14 Nordeste 0 -- -- 77
2017-10-22 13:00:00 9.3 4 Este 15 Nordeste 0 -- -- 80
2017-10-22 12:00:00 7.7 4 Este 9 Este 0 -- -- 87
2017-10-22 11:00:00 6.2 4 Este 10 Sudeste 0 -- -- 96
2017-10-22 10:00:00 5 2 Este 8 Nordeste 0 -- -- 99
2017-10-22 09:00:00 4.1 3 Nordeste 10 Nordeste 0 -- -- 99
2017-10-22 08:00:00 4.1 3 Nordeste 7 Norte 0 -- -- 98
2017-10-22 07:00:00 4.2 4 Noroeste 9 Noroeste 0 -- -- 98
2017-10-22 06:00:00 4.1 4 Norte 9 Norte 0 -- -- 98
2017-10-22 05:00:00 3.6 4 Noroeste 6 Norte 0 -- -- 98
2017-10-22 04:00:00 3.7 4 Sudeste 7 Sudeste 0 -- -- 99
2017-10-22 03:00:00 3.8 3 Sudeste 8 Sudeste 0 -- -- 99
2017-10-22 02:00:00 4.2 3 Norte 8 Noroeste 0 -- -- 98
2017-10-22 01:00:00 4.5 5 Noroeste 15 Oeste 0 -- -- 99
2017-10-22 00:00:00 4.6 7 Noroeste 14 Noroeste 0 -- -- 97
2017-10-21 23:00:00 4.7 8 Noroeste 14 Noroeste 0 -- -- 96
2017-10-21 22:00:00 5.3 6 Oeste 13 Oeste 0 -- -- 96
2017-10-21 21:00:00 6 8 Oeste 18 Oeste 0 -- -- 91
2017-10-21 20:00:00 6.6 9 Oeste 23 Noroeste 0 -- -- 88
2017-10-21 19:00:00 7.8 10 Oeste 21 Noroeste 0 -- -- 83
2017-10-21 18:00:00 8.4 9 Noroeste 23 Oeste 0 -- -- 88
2017-10-21 17:00:00 8.7 9 Oeste 30 Oeste 0 -- -- 84
2017-10-21 16:00:00 9.1 10 Oeste 27 Oeste 0 -- -- 81
2017-10-21 15:00:00 8.5 10 Oeste 29 Sudoeste 0 -- -- 87
2017-10-21 14:00:00 8.7 10 Oeste 30 Sudoeste 0 -- -- 89
2017-10-21 13:00:00 7.5 8 Oeste 25 Oeste 0 -- -- 96
2017-10-21 12:00:00 7.2 10 Oeste 28 Sudoeste 0 -- -- 99
2017-10-21 11:00:00 6.9 10 Oeste 31 Sudoeste 0 -- -- 100
2017-10-21 10:00:00 7 7 Sudoeste 23 Sudoeste 0 -- -- 100
2017-10-21 09:00:00 6.6 6 Sudoeste 17 Sudoeste 0 -- -- 100
2017-10-21 08:00:00 6.6 6 Sur 19 Sur 0 -- -- 100
2017-10-21 07:00:00 6.4 4 Sudeste 21 Sudoeste 0 -- -- 100
2017-10-21 06:00:00 7.2 8 Oeste 25 Oeste 0 -- -- 100
2017-10-21 05:00:00 7.6 10 Oeste 36 Oeste 0 -- -- 100
2017-10-21 04:00:00 8.4 12 Oeste 36 Oeste 0.2 -- -- 100
2017-10-21 03:00:00 9 14 Oeste 38 Oeste 3 -- -- 100
2017-10-21 02:00:00 9.3 10 Sudoeste 51 Oeste 5 -- -- 100
2017-10-21 01:00:00 10.6 19 Oeste 48 Sudoeste 3 -- -- 99
2017-10-21 00:00:00 13 16 Sudoeste 42 Sudoeste 0 -- -- 92
2017-10-20 23:00:00 13.1 17 Sur 40 Sudoeste 0 -- -- 90
2017-10-20 22:00:00 13 17 Sudoeste 43 Sur 0 -- -- 95
2017-10-20 21:00:00 13.1 15 Sur 39 Sudoeste 0 -- -- 92
2017-10-20 20:00:00 13.7 13 Sudoeste 48 Sudoeste 0 -- -- 91
2017-10-20 19:00:00 14.4 16 Sudoeste 44 Sudoeste 0 -- -- 92
2017-10-20 18:00:00 15.2 12 Sudoeste 39 Sudoeste 0 -- -- 91
2017-10-20 17:00:00 17 13 Sudoeste 37 Sudoeste 0 -- -- 79
2017-10-20 16:00:00 16.3 13 Sudoeste 37 Sudoeste 0 -- -- 83
2017-10-20 15:00:00 15.5 13 Sur 41 Sudoeste 0 -- -- 87
2017-10-20 14:00:00 15.1 11 Sudoeste 29 Sudoeste 0 -- -- 89
2017-10-20 13:00:00 13.8 10 Sudoeste 29 Oeste 0 -- -- 84
2017-10-20 12:00:00 11.8 8 Sur 24 Sudoeste 0 -- -- 77
2017-10-20 11:00:00 11.6 8 Sur 28 Sudoeste 0 -- -- 78
2017-10-20 10:00:00 9.8 10 Sudoeste 24 Sudoeste 0 -- -- 87
2017-10-20 09:00:00 9.1 8 Sudoeste 30 Sur 0 -- -- 95
2017-10-20 08:00:00 9.3 9 Sudoeste 30 Sudoeste 0 -- -- 96
2017-10-20 07:00:00 9.8 9 Sudoeste 27 Sudoeste 0 -- -- 97
2017-10-20 06:00:00 10.2 11 Sudoeste 36 Sudoeste 0 -- -- 100
2017-10-20 05:00:00 10.1 11 Sudoeste 33 Oeste 0 -- -- 100
2017-10-20 04:00:00 10.2 10 Sudoeste 28 Oeste 0 -- -- 99
2017-10-20 03:00:00 10.5 13 Sudoeste 35 Oeste 0 -- -- 100
2017-10-20 02:00:00 10.9 12 Sudoeste 29 Sudoeste 0 -- -- 100
2017-10-20 01:00:00 11.1 10 Sudoeste 29 Sudoeste 0 -- -- 100
2017-10-20 00:00:00 11.1 9 Sudoeste 32 Oeste 0 -- -- 100
2017-10-19 23:00:00 11.1 7 Sur 27 Sudoeste 0.4 -- -- 100
2017-10-19 22:00:00 11.3 12 Sudoeste 28 Sudoeste 0.6 -- -- 100
2017-10-19 21:00:00 11.4 9 Sudoeste 37 Sudoeste 0.8 -- -- 100
2017-10-19 20:00:00 10.7 9 Sur 24 Sur 0.2 -- -- 100
2017-10-19 19:00:00 10.3 6 Sur 32 Sudoeste 0 -- -- 98
2017-10-19 18:00:00 10.3 11 Sudoeste 28 Sudoeste 0 -- -- 93
2017-10-19 17:00:00 9.4 11 Sur 39 Sudoeste 0.6 -- -- 95
2017-10-19 16:00:00 10.2 17 Sudoeste 36 Sudoeste 0 -- -- 96
2017-10-19 15:00:00 10.3 8 Sudoeste 26 Sudoeste 0.2 -- -- 100
2017-10-19 14:00:00 9.7 8 Sudoeste 25 Sudoeste 0.2 -- -- 98
2017-10-19 13:00:00 9.7 9 Sudoeste 23 Sudoeste 0 -- -- 96
2017-10-19 12:00:00 9.2 8 Sur 30 Sudoeste 0 -- -- 95
2017-10-19 11:00:00 8.1 7 Sudoeste 19 Sudoeste 0.2 -- -- 94
2017-10-19 10:00:00 7.5 3 Sudoeste 18 Sudoeste 0 -- -- 87
2017-10-19 09:00:00 6.8 7 Sudoeste 18 Sudoeste 0 -- -- 84
2017-10-19 08:00:00 6.1 5 Sur 17 Sur 0 -- -- 92
2017-10-19 07:00:00 6.1 4 Sudoeste 13 Sur 0 -- -- 94
2017-10-19 06:00:00 5.9 4 Sur 17 Sudoeste 0 -- -- 97
2017-10-19 05:00:00 5.8 5 Sudoeste 16 Sudoeste 0 -- -- 99
2017-10-19 04:00:00 5.8 6 Sudoeste 13 Sudoeste 0 -- -- 99
2017-10-19 03:00:00 5.7 4 Sudoeste 10 Sur 0 -- -- 99
2017-10-19 02:00:00 5.8 3 Sudoeste 12 Oeste 0 -- -- 100
2017-10-19 01:00:00 6 7 Sudoeste 12 Sudoeste 0 -- -- 100
2017-10-19 00:00:00 6 6 Sudoeste 10 Oeste 0 -- -- 100
2017-10-18 23:00:00 6.1 7 Sudoeste 13 Oeste 0 -- -- 100
2017-10-18 22:00:00 6.7 4 Oeste 10 Oeste 0 -- -- 100
2017-10-18 21:00:00 6.6 6 Oeste 15 Oeste 0 -- -- 100
2017-10-18 20:00:00 6.5 6 Oeste 16 Sudoeste 0 -- -- 99
2017-10-18 19:00:00 6.7 7 Oeste 14 Sudoeste 0.4 -- -- 96
2017-10-18 18:00:00 6.3 9 Oeste 22 Sudoeste 5 -- -- 99
2017-10-18 17:00:00 8.2 0 Calma 12 Oeste 0.2 -- -- 98
2017-10-18 16:00:00 7.1 5 Sudoeste 21 Sudoeste 4.4 -- -- 96
2017-10-18 15:00:00 8.4 5 Oeste 26 Sudoeste 1.2 -- -- 93
2017-10-18 14:00:00 9 7 Sudoeste 21 Sudoeste 0 -- -- 89
2017-10-18 13:00:00 8.8 5 Sur 23 Sudoeste 0 -- -- 87
2017-10-18 12:00:00 8.1 10 Sudoeste 22 Sudoeste 0 -- -- 87
2017-10-18 11:00:00 7.2 9 Sudoeste 24 Sudoeste 0 -- -- 93
2017-10-18 10:00:00 6 6 Sudoeste 21 Sudoeste 0 -- -- 95
2017-10-18 09:00:00 6 10 Sudoeste 24 Sudoeste 0 -- -- 93
2017-10-18 08:00:00 6.4 10 Sur 21 Sur 0 -- -- 94
2017-10-18 07:00:00 6.8 9 Sudoeste 34 Sur 0.2 -- -- 90
2017-10-18 06:00:00 7 20 Sur 40 Sudoeste 0.4 -- -- 93
2017-10-18 05:00:00 7.5 16 Sur 34 Sur 0.2 -- -- 94
2017-10-18 04:00:00 7.6 10 Sur 21 Sudeste 0.2 -- -- 94
2017-10-18 03:00:00 7.7 8 Sur 19 Sudeste 0.2 -- -- 95
2017-10-18 02:00:00 7.8 8 Sur 23 Sur 0.4 -- -- 95
2017-10-18 01:00:00 7.9 10 Sur 21 Sur 0.6 -- -- 94
2017-10-18 00:00:00 8.3 9 Sudoeste 19 Sur 0.6 -- -- 90
2017-10-17 23:00:00 9.4 7 Sur 20 Sur 0 -- -- 80
2017-10-17 22:00:00 9.9 5 Sur 26 Sur 0 -- -- 75
2017-10-17 21:00:00 9.8 10 Sudoeste 27 Sudoeste 0 -- -- 75
2017-10-17 20:00:00 10.3 6 Sudoeste 21 Sudoeste 0 -- -- 73
2017-10-17 19:00:00 11.6 8 Sudoeste 23 Sur 0 -- -- 65
2017-10-17 18:00:00 13 7 Sudoeste 25 Sur 0 -- -- 62
2017-10-17 17:00:00 12.9 13 Sudoeste 35 Sudoeste 0 -- -- 64
2017-10-17 16:00:00 12.2 11 Sudoeste 29 Sur 0 -- -- 69
2017-10-17 15:00:00 12.2 10 Sudoeste 27 Sudoeste 0 -- -- 74
2017-10-17 14:00:00 10.5 7 Sur 26 Sur 0 -- -- 84
2017-10-17 13:00:00 8.5 9 Sudoeste 25 Sudoeste 0 -- -- 100
2017-10-17 12:00:00 8.9 8 Sudoeste 22 Sudoeste 0.2 -- -- 100
2017-10-17 11:00:00 9 6 Sudoeste 30 Oeste 0 -- -- 100
2017-10-17 10:00:00 9.2 15 Sudoeste 29 Sudoeste 0 -- -- 100
2017-10-17 09:00:00 10.4 13 Sudoeste 31 Sur 0.6 -- -- 98
2017-10-17 08:00:00 11.3 18 Sur 33 Sur 1.2 -- -- 94
2017-10-17 07:00:00 10.6 12 Sudoeste 36 Sudoeste 4.6 -- -- 99
2017-10-17 06:00:00 11.7 13 Sudoeste 26 Sudoeste 0.2 -- -- 90
2017-10-17 05:00:00 12.9 15 Oeste 31 Sudoeste 0 -- -- 77
2017-10-17 04:00:00 15.4 6 Sur 22 Sudoeste 0 -- -- 62
2017-10-17 03:00:00 15.7 10 Sur 24 Sur 0 -- -- 59
2017-10-17 02:00:00 16.1 14 Sur 27 Sur 0 -- -- 54
2017-10-17 01:00:00 15.5 8 Sur 21 Sur 0 -- -- 56
2017-10-17 00:00:00 14.9 8 Sur 17 Sur 0 -- -- 60
2017-10-16 23:00:00 15.2 8 Sur 17 Sur 0 -- -- 59
2017-10-16 22:00:00 14.8 8 Sur 18 Sudeste 0 -- -- 60
2017-10-16 21:00:00 14.8 9 Sur 22 Sudeste 0 -- -- 60
2017-10-16 20:00:00 13.4 10 Sur 19 Sudeste 0 -- -- 74
2017-10-16 19:00:00 12.5 6 Sudeste 13 Sudeste 0 -- -- 91
2017-10-16 18:00:00 12.6 3 Sudeste 7 Sudeste 0 -- -- 95
2017-10-16 17:00:00 13.3 3 Sudeste 14 Sur 0 -- -- 91
2017-10-16 16:00:00 14.4 6 Sur 15 Sur 0 -- -- 78
2017-10-16 15:00:00 14.5 8 Sur 19 Sur 0 -- -- 85
2017-10-16 14:00:00 11.8 8 Sudoeste 15 Oeste 0 -- -- 100
2017-10-16 13:00:00 11.6 12 Oeste 23 Oeste 0 -- -- 100
2017-10-16 12:00:00 12.4 15 Oeste 22 Oeste 0 -- -- 99
2017-10-16 11:00:00 13 13 Oeste 22 Oeste 0 -- -- 97
2017-10-16 10:00:00 14.5 10 Oeste 20 Sur 0 -- -- 89
2017-10-16 09:00:00 15.5 8 Sur 23 Sur 0 -- -- 79
2017-10-16 08:00:00 15.7 10 Sur 26 Sudoeste 0 -- -- 77
2017-10-16 07:00:00 16 11 Sur 36 Sudoeste 0 -- -- 73
2017-10-16 06:00:00 15.8 12 Sudoeste 36 Sudoeste 0 -- -- 71
2017-10-16 05:00:00 16.5 14 Sudoeste 50 Sudoeste 0 -- -- 63
2017-10-16 04:00:00 18.3 16 Sudoeste 44 Sur 0 -- -- 45
2017-10-16 03:00:00 19.5 21 Sur 46 Sur 0 -- -- 40
2017-10-16 02:00:00 20.8 14 Sudoeste 41 Sur 0 -- -- 37
2017-10-16 01:00:00 21.9 20 Sur 48 Sur 0 -- -- 34
2017-10-16 00:00:00 21.9 18 Sur 38 Sur 0 -- -- 35
2017-10-15 23:00:00 20.5 10 Sur 35 Sur 0 -- -- 39
2017-10-15 22:00:00 20.5 10 Sudeste 27 Sudeste 0 -- -- 39
2017-10-15 21:00:00 21.1 7 Sudeste 32 Sur 0 -- -- 37
2017-10-15 20:00:00 22 12 Sur 27 Sudeste 0 -- -- 35
2017-10-15 19:00:00 22.2 8 Sudeste 37 Sur 0 -- -- 35
2017-10-15 18:00:00 23.4 16 Sur 39 Sudeste 0 -- -- 33
2017-10-15 17:00:00 23.5 19 Sur 40 Sur 0 -- -- 33
2017-10-15 16:00:00 24.4 14 Sur 42 Sur 0 -- -- 32
2017-10-15 15:00:00 25 19 Sur 42 Sudoeste 0 -- -- 31
2017-10-15 14:00:00 25 18 Sur 39 Sur 0 -- -- 31
2017-10-15 13:00:00 24.6 10 Sudeste 32 Sudeste 0 -- -- 33
2017-10-15 12:00:00 23.3 9 Sudeste 33 Sudeste 0 -- -- 38
2017-10-15 11:00:00 21.2 10 Sur 31 Sudoeste 0 -- -- 39
2017-10-15 10:00:00 20.3 16 Sur 30 Sur 0 -- -- 37
2017-10-15 09:00:00 19.9 13 Sur 37 Sur 0 -- -- 37
2017-10-15 08:00:00 19.9 17 Sur 36 Sudeste 0 -- -- 37
2017-10-15 07:00:00 20.3 19 Sur 33 Sur 0 -- -- 36
2017-10-15 06:00:00 20.4 18 Sur 37 Sur 0 -- -- 36
2017-10-15 05:00:00 20.5 19 Sur 32 Sur 0 -- -- 36
2017-10-15 04:00:00 19.5 12 Sudeste 25 Sur 0 -- -- 38
2017-10-15 03:00:00 20.4 15 Sur 37 Sur 0 -- -- 36
2017-10-15 02:00:00 20.8 17 Sur 36 Sur 0 -- -- 34
2017-10-15 01:00:00 21 18 Sur 33 Sur 0 -- -- 34
2017-10-15 00:00:00 21.1 14 Sur 35 Sur 0 -- -- 34
2017-10-14 23:00:00 21.1 16 Sur 32 Sudeste 0 -- -- 33
2017-10-14 22:00:00 21.2 17 Sur 33 Sur 0 -- -- 34
2017-10-14 21:00:00 20.9 13 Sur 27 Sur 0 -- -- 36
2017-10-14 20:00:00 20.4 8 Oeste 20 Oeste 0 -- -- 42
2017-10-14 19:00:00 22.2 8 Sudoeste 21 Sudoeste 0 -- -- 37
2017-10-14 18:00:00 23.5 8 Sudoeste 21 Sudoeste 0 -- -- 34
2017-10-14 17:00:00 24.4 7 Sudoeste 24 Sudoeste 0 -- -- 33
2017-10-14 16:00:00 24.1 9 Sudoeste 22 Oeste 0 -- -- 29
2017-10-14 15:00:00 23.7 8 Oeste 20 Oeste 0 -- -- 35
2017-10-14 14:00:00 23.2 9 Sudoeste 24 Sudoeste 0 -- -- 34
2017-10-14 13:00:00 22.3 6 Sudoeste 18 Sur 0 -- -- 33
2017-10-14 12:00:00 20.8 5 Sur 18 Sudoeste 0 -- -- 34
2017-10-14 11:00:00 18.5 9 Sur 22 Sur 0 -- -- 40
2017-10-14 10:00:00 16.9 10 Sur 21 Sur 0 -- -- 47
2017-10-14 09:00:00 15.8 12 Sur 19 Sur 0 -- -- 46
2017-10-14 08:00:00 16.3 12 Sur 21 Sur 0 -- -- 44
2017-10-14 07:00:00 16 10 Sur 19 Sur 0 -- -- 44
2017-10-14 06:00:00 16.2 11 Sudeste 17 Sur 0 -- -- 45
2017-10-14 05:00:00 16.2 12 Sur 17 Sudeste 0 -- -- 46
2017-10-14 04:00:00 16.2 12 Sudeste 17 Sudeste 0 -- -- 47
2017-10-14 03:00:00 16.3 9 Sur 13 Sudeste 0 -- -- 47
2017-10-14 02:00:00 15.6 9 Sudeste 13 Sudeste 0 -- -- 48
2017-10-14 01:00:00 12.9 3 Sudeste 7 Sudeste 0 -- -- 74
2017-10-14 00:00:00 12.7 0 Calma 6 Este 0 -- -- 78
2017-10-13 23:00:00 13.1 2 Este 5 Este 0 -- -- 72
2017-10-13 22:00:00 14.1 0 Calma 5 Norte 0 -- -- 66
2017-10-13 21:00:00 15.2 3 Noroeste 10 Noroeste 0 -- -- 62
2017-10-13 20:00:00 16.1 7 Oeste 19 Oeste 0 -- -- 57
2017-10-13 19:00:00 18.6 12 Oeste 21 Oeste 0 -- -- 49
2017-10-13 18:00:00 21.2 9 Oeste 19 Noroeste 0 -- -- 40
2017-10-13 17:00:00 21.7 10 Oeste 24 Oeste 0 -- -- 36
2017-10-13 16:00:00 21 10 Oeste 23 Oeste 0 -- -- 39
2017-10-13 15:00:00 20.2 14 Oeste 24 Oeste 0 -- -- 42
2017-10-13 14:00:00 20.1 9 Oeste 19 Oeste 0 -- -- 42
2017-10-13 13:00:00 20.2 8 Oeste 13 Oeste 0 -- -- 40
2017-10-13 12:00:00 19.3 4 Sudoeste 9 Sudoeste 0 -- -- 41
2017-10-13 11:00:00 18.2 2 Sudoeste 7 Sudeste 0 -- -- 43
2017-10-13 10:00:00 16.1 4 Sur 9 Sudoeste 0 -- -- 48
2017-10-13 09:00:00 14.4 8 Sudoeste 9 Sudoeste 0 -- -- 52
2017-10-13 08:00:00 14.5 5 Sudoeste 8 Sudoeste 0 -- -- 52
2017-10-13 07:00:00 14.6 8 Sudoeste 9 Sudoeste 0 -- -- 51
2017-10-13 06:00:00 14.6 4 Sudoeste 6 Sudoeste 0 -- -- 52
2017-10-13 05:00:00 14.9 4 Sudoeste 10 Sudoeste 0 -- -- 52
2017-10-13 04:00:00 16.1 6 Sudoeste 9 Sudoeste 0 -- -- 48
2017-10-13 03:00:00 16.2 5 Sur 9 Sudeste 0 -- -- 41
2017-10-13 02:00:00 15.4 5 Sur 8 Sur 0 -- -- 50
2017-10-13 01:00:00 14.8 4 Sur 7 Sur 0 -- -- 44
2017-10-13 00:00:00 15 5 Sudoeste 8 Sudoeste 0 -- -- 44
2017-10-12 23:00:00 15.8 6 Oeste 17 Oeste 0 -- -- 55
2017-10-12 22:00:00 17.3 13 Oeste 21 Oeste 0 -- -- 49
2017-10-12 21:00:00 18.2 11 Oeste 19 Sudoeste 0 -- -- 42
2017-10-12 20:00:00 19.6 9 Sudoeste 17 Oeste 0 -- -- 35
2017-10-12 19:00:00 22.1 6 Oeste 20 Oeste 0 -- -- 32
2017-10-12 18:00:00 23.1 8 Sudoeste 23 Oeste 0 -- -- 31
2017-10-12 17:00:00 23.2 8 Sudoeste 23 Oeste 0 -- -- 29
2017-10-12 16:00:00 23 7 Sudoeste 22 Oeste 0 -- -- 31
2017-10-12 15:00:00 22.7 9 Oeste 23 Sudoeste 0 -- -- 33
2017-10-12 14:00:00 22.1 5 Oeste 17 Noroeste 0 -- -- 35
2017-10-12 13:00:00 21.6 6 Sur 18 Sur 0 -- -- 34
2017-10-12 12:00:00 19.7 8 Sur 19 Sur 0 -- -- 33
2017-10-12 11:00:00 17.7 8 Sur 17 Sudeste 0 -- -- 30
2017-10-12 10:00:00 15.9 8 Sudeste 15 Sudeste 0 -- -- 41
2017-10-12 09:00:00 14.5 6 Sur 18 Sur 0 -- -- 46
2017-10-12 08:00:00 14.4 8 Sur 18 Sur 0 -- -- 51
2017-10-12 07:00:00 14.4 5 Sur 18 Sur 0 -- -- 49
2017-10-12 06:00:00 14.3 6 Sur 19 Sur 0 -- -- 43
2017-10-12 05:00:00 13.7 4 Sur 17 Sudoeste 0 -- -- 48
2017-10-12 04:00:00 13.8 6 Sur 17 Sur 0 -- -- 49
2017-10-12 03:00:00 13 9 Sudeste 22 Sur 0 -- -- 61
2017-10-12 02:00:00 12.3 2 Sudeste 8 Sur 0 -- -- 69
2017-10-12 01:00:00 13.5 3 Sur 10 Sur 0 -- -- 63
2017-10-12 00:00:00 12.8 6 Sudeste 10 Sudeste 0 -- -- 70
2017-10-11 23:00:00 11.9 0 Calma 8 Oeste 0 -- -- 72
2017-10-11 22:00:00 12.9 8 Oeste 16 Oeste 0 -- -- 69
2017-10-11 21:00:00 13.8 12 Oeste 17 Oeste 0 -- -- 64
2017-10-11 20:00:00 15.3 12 Oeste 19 Oeste 0 -- -- 61
2017-10-11 19:00:00 18.3 9 Oeste 20 Oeste 0 -- -- 51
2017-10-11 18:00:00 20.7 9 Oeste 23 Sudoeste 0 -- -- 41
2017-10-11 17:00:00 21.2 8 Sudoeste 22 Sudoeste 0 -- -- 33
2017-10-11 16:00:00 20.6 8 Sudoeste 27 Sur 0 -- -- 29
2017-10-11 15:00:00 20.6 12 Sudoeste 32 Sudoeste 0 -- -- 19
2017-10-11 14:00:00 20 6 Sur 24 Sudoeste 0 -- -- 22
2017-10-11 13:00:00 19 8 Sudoeste 27 Oeste 0 -- -- 24
2017-10-11 12:00:00 18.8 8 Sudoeste 23 Sudoeste 0 -- -- 22
2017-10-11 11:00:00 17 5 Sudoeste 20 Sudoeste 0 -- -- 23
2017-10-11 10:00:00 16.2 5 Sur 18 Sudoeste 0 -- -- 22
2017-10-11 09:00:00 15.7 5 Sur 15 Sur 0 -- -- 22
2017-10-11 08:00:00 16.1 6 Sur 16 Sudoeste 0 -- -- 23
2017-10-11 07:00:00 16.2 6 Sur 20 Sur 0 -- -- 23
2017-10-11 06:00:00 16 4 Sur 13 Sur 0 -- -- 24
2017-10-11 05:00:00 16.3 4 Sudoeste 12 Sudoeste 0 -- -- 24
2017-10-11 04:00:00 16.1 5 Sudoeste 14 Sudoeste 0 -- -- 25
2017-10-11 03:00:00 16.1 5 Sudoeste 14 Sur 0 -- -- 26
2017-10-11 02:00:00 15.9 6 Sudoeste 12 Sudoeste 0 -- -- 27
2017-10-11 01:00:00 15.4 6 Sudoeste 8 Sudoeste 0 -- -- 31
2017-10-11 00:00:00 15 2 Oeste 6 Oeste 0 -- -- 45
2017-10-10 23:00:00 15.6 6 Oeste 9 Oeste 0 -- -- 36
2017-10-10 22:00:00 16.6 4 Noroeste 8 Oeste 0 -- -- 32
2017-10-10 21:00:00 16.8 5 Noroeste 8 Noroeste 0 -- -- 29
2017-10-10 20:00:00 17.9 4 Noroeste 9 Oeste 0 -- -- 28
2017-10-10 19:00:00 21.2 6 Oeste 15 Oeste 0 -- -- 23
2017-10-10 18:00:00 22.3 9 Oeste 21 Noroeste 0 -- -- 21
2017-10-10 17:00:00 23.1 5 Noroeste 17 Oeste 0 -- -- 21
2017-10-10 16:00:00 22.4 8 Oeste 17 Oeste 0 -- -- 22
2017-10-10 15:00:00 22.5 7 Sudoeste 13 Oeste 0 -- -- 21
2017-10-10 14:00:00 22 3 Norte 8 Noroeste 0 -- -- 30
2017-10-10 13:00:00 22.5 0 Calma 7 Este 0 -- -- 28
2017-10-10 12:00:00 20.5 2 Este 9 Este 0 -- -- 30
2017-10-10 11:00:00 17.3 3 Este 7 Este 0 -- -- 36
2017-10-10 10:00:00 14.9 0 Calma 4 Este 0 -- -- 41
2017-10-10 09:00:00 13 0 Calma 3 Norte 0 -- -- 38
2017-10-10 08:00:00 12.9 0 Calma 2 Norte 0 -- -- 36
2017-10-10 07:00:00 12.9 0 Calma 2 Norte 0 -- -- 35
2017-10-10 06:00:00 13.4 0 Calma 4 Noroeste 0 -- -- 31
2017-10-10 05:00:00 13.7 3 Noroeste 4 Norte 0 -- -- 30
2017-10-10 04:00:00 13.4 0 Calma 2 Noroeste 0 -- -- 30
2017-10-10 03:00:00 13.1 0 Calma 4 Este 0 -- -- 42
2017-10-10 02:00:00 13.2 2 Sudeste 4 Sudeste 0 -- -- 50
2017-10-10 01:00:00 13.4 0 Calma 4 Nordeste 0 -- -- 53
2017-10-10 00:00:00 13.3 2 Este 5 Nordeste 0 -- -- 59
2017-10-09 23:00:00 13.5 2 Este 6 Este 0 -- -- 73
2017-10-09 22:00:00 14.4 0 Calma 5 Norte 0 -- -- 60
2017-10-09 21:00:00 15.8 2 Norte 10 Noroeste 0 -- -- 41
2017-10-09 20:00:00 16.7 6 Oeste 14 Oeste 0 -- -- 54
2017-10-09 19:00:00 19.4 9 Oeste 18 Oeste 0 -- -- 47
2017-10-09 18:00:00 20.8 9 Noroeste 17 Noroeste 0 -- -- 40
2017-10-09 17:00:00 21.2 9 Oeste 16 Oeste 0 -- -- 38
2017-10-09 16:00:00 21.2 7 Oeste 16 Noroeste 0 -- -- 33
2017-10-09 15:00:00 21 6 Oeste 14 Noroeste 0 -- -- 34
2017-10-09 14:00:00 20.7 4 Oeste 10 Noroeste 0 -- -- 35
2017-10-09 13:00:00 20 3 Noroeste 9 Noroeste 0 -- -- 38
2017-10-09 12:00:00 18.5 4 Sudoeste 9 Oeste 0 -- -- 36
2017-10-09 11:00:00 16.4 3 Sudoeste 6 Sudoeste 0 -- -- 40
2017-10-09 10:00:00 14.8 3 Sudoeste 6 Sudoeste 0 -- -- 44
2017-10-09 09:00:00 12.7 0 Calma 6 Sur 0 -- -- 42
2017-10-09 08:00:00 12.8 5 Sur 9 Sur 0 -- -- 37
2017-10-09 07:00:00 12 5 Sudeste 14 Sudeste 0 -- -- 46
2017-10-09 06:00:00 13.5 2 Este 9 Sudeste 0 -- -- 43
2017-10-09 05:00:00 14 2 Sudoeste 10 Sudeste 0 -- -- 38
2017-10-09 04:00:00 15.4 7 Sudeste 14 Sudeste 0 -- -- 32
2017-10-09 03:00:00 13.5 3 Este 10 Este 0 -- -- 40
2017-10-09 02:00:00 14 4 Este 14 Este 0 -- -- 50
2017-10-09 01:00:00 14.2 4 Este 12 Este 0 -- -- 54
2017-10-09 00:00:00 13.6 4 Este 11 Este 0 -- -- 58
2017-10-08 23:00:00 14.2 4 Este 12 Este 0 -- -- 65
2017-10-08 22:00:00 15.6 3 Este 12 Este 0 -- -- 60
2017-10-08 21:00:00 16.5 2 Este 12 Noroeste 0 -- -- 53
2017-10-08 20:00:00 18.6 8 Noroeste 15 Noroeste 0 -- -- 45
2017-10-08 19:00:00 21.3 8 Noroeste 19 Oeste 0 -- -- 47
2017-10-08 18:00:00 22.8 9 Oeste 17 Oeste 0 -- -- 36
2017-10-08 17:00:00 22.8 9 Oeste 17 Oeste 0 -- -- 34
2017-10-08 16:00:00 22.8 5 Noroeste 13 Oeste 0 -- -- 38
2017-10-08 15:00:00 22.3 5 Noroeste 14 Noroeste 0 -- -- 38
2017-10-08 14:00:00 21.5 7 Noroeste 15 Noroeste 0 -- -- 31
2017-10-08 13:00:00 21.4 5 Oeste 13 Noroeste 0 -- -- 39
2017-10-08 12:00:00 20 4 Oeste 8 Sudoeste 0 -- -- 41
2017-10-08 11:00:00 17.5 2 Este 6 Este 0 -- -- 46
2017-10-08 10:00:00 15.6 0 Calma 4 Este 0 -- -- 49
2017-10-08 09:00:00 14.4 3 Oeste 9 Oeste 0 -- -- 59
2017-10-08 08:00:00 15.1 5 Sudoeste 12 Sudeste 0 -- -- 43
2017-10-08 07:00:00 14.5 5 Sudeste 11 Sudeste 0 -- -- 43
2017-10-08 06:00:00 14.9 5 Sudeste 12 Sur 0 -- -- 45
2017-10-08 05:00:00 13.9 4 Sudeste 11 Sudeste 0 -- -- 51
2017-10-08 04:00:00 14.1 5 Sudeste 13 Sudeste 0 -- -- 55
2017-10-08 03:00:00 14.7 5 Este 13 Este 0 -- -- 52
2017-10-08 02:00:00 14.1 5 Este 11 Este 0 -- -- 53
2017-10-08 01:00:00 13 4 Este 15 Nordeste 0 -- -- 58
2017-10-08 00:00:00 13.5 3 Este 10 Nordeste 0 -- -- 61
2017-10-07 23:00:00 13.7 2 Este 6 Este 0 -- -- 59
2017-10-07 22:00:00 15.5 2 Nordeste 7 Nordeste 0 -- -- 53
2017-10-07 21:00:00 17.1 3 Nordeste 10 Este 0 -- -- 51
2017-10-07 20:00:00 18.7 5 Oeste 11 Sudoeste 0 -- -- 61
2017-10-07 19:00:00 22.1 9 Oeste 14 Oeste 0 -- -- 47
2017-10-07 18:00:00 23.6 5 Noroeste 14 Noroeste 0 -- -- 44
2017-10-07 17:00:00 23 5 Noroeste 12 Noroeste 0 -- -- 34
2017-10-07 16:00:00 22.3 4 Noroeste 9 Norte 0 -- -- 37
2017-10-07 15:00:00 21.3 4 Norte 9 Nordeste 0 -- -- 45
2017-10-07 14:00:00 21.5 3 Nordeste 8 Este 0 -- -- 44
2017-10-07 13:00:00 22 3 Este 12 Sudeste 0 -- -- 41
2017-10-07 12:00:00 19.8 5 Sudeste 15 Este 0 -- -- 42
2017-10-07 11:00:00 16.5 5 Este 12 Sudeste 0 -- -- 50
2017-10-07 10:00:00 15.7 5 Este 15 Sudeste 0 -- -- 56
2017-10-07 09:00:00 15.3 7 Sudeste 18 Sudeste 0 -- -- 43
2017-10-07 08:00:00 14.1 9 Sudeste 16 Sudeste 0 -- -- 47
2017-10-07 07:00:00 12.7 6 Sudeste 14 Sudeste 0 -- -- 57
2017-10-07 06:00:00 11.4 4 Este 11 Este 0 -- -- 70
2017-10-07 05:00:00 11.4 3 Este 13 Este 0 -- -- 77
2017-10-07 04:00:00 11.7 4 Este 13 Este 0 -- -- 77
2017-10-07 03:00:00 11.3 3 Este 13 Este 0 -- -- 89
2017-10-07 02:00:00 11.5 6 Este 18 Sudeste 0 -- -- 88
2017-10-07 01:00:00 11.8 4 Este 16 Este 0 -- -- 87
2017-10-07 00:00:00 12.2 4 Este 17 Este 0 -- -- 88
2017-10-06 23:00:00 12.9 4 Este 19 Este 0 -- -- 83
2017-10-06 22:00:00 13.8 5 Este 14 Nordeste 0 -- -- 79
2017-10-06 21:00:00 14.5 4 Este 15 Sudeste 0 -- -- 75
2017-10-06 20:00:00 15.9 5 Nordeste 23 Nordeste 0 -- -- 67
2017-10-06 19:00:00 18.1 6 Nordeste 21 Nordeste 0 -- -- 56
2017-10-06 18:00:00 20.2 7 Nordeste 24 Nordeste 0 -- -- 53
2017-10-06 17:00:00 21.1 7 Nordeste 18 Norte 0 -- -- 45
2017-10-06 16:00:00 20.7 4 Nordeste 13 Este 0 -- -- 50
2017-10-06 15:00:00 20 3 Nordeste 12 Nordeste 0 -- -- 57
2017-10-06 14:00:00 18.4 3 Este 15 Nordeste 0 -- -- 59
2017-10-06 13:00:00 17 4 Este 21 Nordeste 0 -- -- 62
2017-10-06 12:00:00 13.8 7 Este 27 Este 0 -- -- 75
2017-10-06 11:00:00 11.5 6 Este 18 Sudeste 0 -- -- 89
2017-10-06 10:00:00 10.1 5 Este 19 Este 0 -- -- 100
2017-10-06 09:00:00 9.3 4 Este 13 Este 0 -- -- 100
2017-10-06 08:00:00 9.6 5 Este 15 Nordeste 0 -- -- 100
2017-10-06 07:00:00 10 5 Este 16 Este 0 -- -- 100
2017-10-06 06:00:00 10.4 5 Este 16 Este 0 -- -- 100
2017-10-06 05:00:00 10.7 5 Este 18 Este 0 -- -- 100
2017-10-06 04:00:00 11 5 Este 18 Este 0 -- -- 100
2017-10-06 03:00:00 11.4 6 Este 18 Este 0 -- -- 100
2017-10-06 02:00:00 11.8 5 Este 18 Este 0 -- -- 100
2017-10-06 01:00:00 12.2 5 Este 21 Este 0 -- -- 100
2017-10-06 00:00:00 12.6 5 Este 17 Este 0 -- -- 99
2017-10-05 23:00:00 13.2 5 Este 19 Este 0 -- -- 98
2017-10-05 22:00:00 14.2 6 Este 16 Este 0 -- -- 95
2017-10-05 21:00:00 15.6 3 Este 9 Nordeste 0 -- -- 89
2017-10-05 20:00:00 17.6 3 Este 9 Este 0 -- -- 78
2017-10-05 19:00:00 20.5 3 Nordeste 12 Noroeste 0 -- -- 65
2017-10-05 18:00:00 22.1 6 Noroeste 13 Noroeste 0 -- -- 64
2017-10-05 17:00:00 22.9 5 Noroeste 13 Norte 0 -- -- 54
2017-10-05 16:00:00 21.8 5 Noroeste 13 Norte 0 -- -- 54
2017-10-05 15:00:00 21.2 4 Norte 11 Norte 0 -- -- 57
2017-10-05 14:00:00 22 3 Noroeste 9 Oeste 0 -- -- 61
2017-10-05 13:00:00 21.7 2 Nordeste 12 Sudeste 0 -- -- 65
2017-10-05 12:00:00 19.2 5 Sudeste 19 Este 0 -- -- 69
2017-10-05 11:00:00 20.3 12 Sudeste 20 Sudeste 0 -- -- 53
2017-10-05 10:00:00 19.5 11 Sudeste 19 Sudeste 0 -- -- 53
2017-10-05 09:00:00 18.5 12 Sudeste 19 Sudeste 0 -- -- 54
2017-10-05 08:00:00 18.4 13 Sudeste 23 Sudeste 0 -- -- 55
2017-10-05 07:00:00 18.2 14 Sudeste 21 Sudeste 0 -- -- 55
2017-10-05 06:00:00 18.1 14 Sudeste 21 Sudeste 0 -- -- 57
2017-10-05 05:00:00 19.2 13 Sudeste 19 Sudeste 0 -- -- 53
2017-10-05 04:00:00 19.4 11 Sudeste 19 Sudeste 0 -- -- 55
2017-10-05 03:00:00 19 13 Sudeste 19 Sudeste 0 -- -- 61
2017-10-05 02:00:00 18.4 10 Sudeste 15 Sudeste 0 -- -- 70
2017-10-05 01:00:00 17.7 9 Sudeste 13 Sur 0 -- -- 81
2017-10-05 00:00:00 16.7 3 Sudeste 7 Sudeste 0 -- -- 85
2017-10-04 23:00:00 17.1 2 Este 8 Este 0 -- -- 83
2017-10-04 22:00:00 16.9 3 Sudeste 6 Este 0 -- -- 86
2017-10-04 21:00:00 17.4 2 Este 8 Nordeste 0 -- -- 83
2017-10-04 20:00:00 19.1 0 Calma 10 Norte 0 -- -- 71
2017-10-04 19:00:00 21.3 6 Noroeste 16 Oeste 0 -- -- 68
2017-10-04 18:00:00 22.9 9 Oeste 19 Oeste 0 -- -- 51
2017-10-04 17:00:00 22.9 9 Oeste 20 Oeste 0 -- -- 57
2017-10-04 16:00:00 22.6 9 Oeste 15 Oeste 0 -- -- 60
2017-10-04 15:00:00 22.6 4 Oeste 14 Sur 0 -- -- 63
2017-10-04 14:00:00 22.2 5 Sudeste 20 Sudeste 0 -- -- 52
2017-10-04 13:00:00 20.4 8 Sudeste 23 Sudeste 0 -- -- 61
2017-10-04 12:00:00 18.1 8 Sudeste 22 Sudeste 0 -- -- 72
2017-10-04 11:00:00 16.7 10 Sudeste 23 Sudeste 0 -- -- 65
2017-10-04 10:00:00 14.6 13 Sudeste 23 Sudeste 0 -- -- 74
2017-10-04 09:00:00 13.6 15 Sudeste 30 Sudeste 0 -- -- 78
2017-10-04 08:00:00 13.2 17 Sudeste 28 Sudeste 0 -- -- 78
2017-10-04 07:00:00 11.6 7 Sudeste 17 Sudeste 0 -- -- 99
2017-10-04 06:00:00 12.7 8 Sudeste 28 Sudeste 0 -- -- 93
2017-10-04 05:00:00 14.7 13 Sudeste 32 Sudeste 0 -- -- 79
2017-10-04 04:00:00 14.6 16 Sudeste 29 Sudeste 0 -- -- 82
2017-10-04 03:00:00 14.9 14 Sudeste 26 Sudeste 0 -- -- 81
2017-10-04 02:00:00 15.6 10 Sudeste 17 Sudeste 0 -- -- 90
2017-10-04 01:00:00 15.5 6 Sudeste 12 Sudeste 0 -- -- 93
2017-10-04 00:00:00 14.2 3 Sudeste 10 Este 0 -- -- 98
2017-10-03 23:00:00 14.1 4 Este 10 Este 0 -- -- 99
2017-10-03 22:00:00 14.4 3 Este 8 Este 0 -- -- 98
2017-10-03 21:00:00 15 2 Este 15 Noroeste 0 -- -- 91
2017-10-03 20:00:00 15.7 11 Noroeste 17 Noroeste 0 -- -- 89
2017-10-03 19:00:00 19.5 10 Noroeste 19 Sudoeste 0 -- -- 77
2017-10-03 18:00:00 21 11 Oeste 19 Oeste 0 -- -- 60
2017-10-03 17:00:00 21.2 11 Oeste 23 Noroeste 0 -- -- 69
2017-10-03 16:00:00 21.3 10 Oeste 19 Oeste 0 -- -- 69
2017-10-03 15:00:00 20.4 6 Norte 13 Norte 0 -- -- 79
2017-10-03 14:00:00 20.3 4 Este 8 Este 0 -- -- 78
2017-10-03 13:00:00 18.9 3 Sudoeste 12 Sudeste 0 -- -- 83
2017-10-03 12:00:00 13.9 5 Este 12 Este 0 -- -- 98
2017-10-03 11:00:00 13.3 5 Este 15 Sudeste 0 -- -- 99
2017-10-03 10:00:00 12.7 3 Este 10 Norte 0 -- -- 100
2017-10-03 09:00:00 13.9 2 Noroeste 9 Oeste 0 -- -- 93
2017-10-03 08:00:00 14.1 5 Oeste 8 Sudoeste 0 -- -- 91
2017-10-03 07:00:00 14.3 3 Sudoeste 5 Sudoeste 0 -- -- 93
2017-10-03 06:00:00 14.4 4 Oeste 5 Oeste 0 -- -- 89
2017-10-03 05:00:00 14.9 0 Calma -- -- 0 -- -- 79
2017-10-03 04:00:00 15.1 0 Calma 5 Sudoeste 0 -- -- 89
2017-10-03 03:00:00 15 3 Sudoeste 4 Sudoeste 0 -- -- 87
2017-10-03 02:00:00 15.3 0 Calma 6 Sudeste 0 -- -- 86
2017-10-03 01:00:00 15.7 2 Este 4 Este 0 -- -- 94
2017-10-03 00:00:00 16.1 0 Calma 5 Sudeste 0 -- -- 90
2017-10-02 23:00:00 16.9 0 Calma 6 Nordeste 0 -- -- 91
2017-10-02 22:00:00 17.9 4 Norte 11 Noroeste 0 -- -- 88
2017-10-02 21:00:00 18.6 8 Noroeste 16 Noroeste 0 -- -- 82
2017-10-02 20:00:00 19.7 11 Oeste 20 Oeste 0 -- -- 77
2017-10-02 19:00:00 22.1 11 Noroeste 21 Oeste 0 -- -- 68
2017-10-02 18:00:00 23.4 12 Noroeste 21 Noroeste 0 -- -- 66
2017-10-02 17:00:00 23.9 8 Oeste 19 Noroeste 0 -- -- 62
2017-10-02 16:00:00 23.2 10 Oeste 19 Sudoeste 0 -- -- 65
2017-10-02 15:00:00 22.6 8 Oeste 16 Oeste 0 -- -- 69
2017-10-02 14:00:00 21.5 4 Noroeste 10 Sudoeste 0 -- -- 76
2017-10-02 13:00:00 20.3 3 Norte 11 Este 0 -- -- 80
2017-10-02 12:00:00 18.8 4 Este 14 Este 0 -- -- 87
2017-10-02 11:00:00 16.5 5 Este 15 Este 0 -- -- 94
2017-10-02 10:00:00 15.6 4 Nordeste 14 Nordeste 0 -- -- 93
2017-10-02 09:00:00 13.7 3 Este 8 Sudeste 0 -- -- 100
2017-10-02 08:00:00 13.8 3 Este 9 Sudeste 0 -- -- 96
2017-10-02 07:00:00 14.1 2 Nordeste 10 Este 0 -- -- 95
2017-10-02 06:00:00 14.5 2 Este 3 Nordeste 0 -- -- 93
2017-10-02 05:00:00 15.2 0 Calma 9 Nordeste 0 -- -- 92
2017-10-02 04:00:00 14.9 0 Calma 4 Sudeste 0 -- -- 92
2017-10-02 03:00:00 15.2 0 Calma 6 Nordeste 0 -- -- 87
2017-10-02 02:00:00 15.2 3 Norte 5 Nordeste 0 -- -- 84
2017-10-02 01:00:00 14.6 0 Calma 4 Sudeste 0 -- -- 89
2017-10-02 00:00:00 14.6 0 Calma 7 Noroeste 0 -- -- 89
2017-10-01 23:00:00 15.2 4 Noroeste 10 Oeste 0 -- -- 91
2017-10-01 22:00:00 15.3 8 Oeste 12 Noroeste 0 -- -- 89
2017-10-01 21:00:00 15.4 7 Oeste 14 Noroeste 0 -- -- 88
2017-10-01 20:00:00 16 5 Oeste 13 Oeste 0 -- -- 89
2017-10-01 19:00:00 17.9 5 Oeste 14 Oeste 0 -- -- 82
2017-10-01 18:00:00 17.9 5 Oeste 13 Noroeste 0 -- -- 82
2017-10-01 17:00:00 18.6 3 Norte 11 Oeste 0 -- -- 77
2017-10-01 16:00:00 17.3 5 Norte 13 Noroeste 0 -- -- 83
2017-10-01 15:00:00 15.9 4 Noroeste 11 Norte 0 -- -- 88
2017-10-01 14:00:00 14.8 4 Oeste 11 Noroeste 0 -- -- 92
2017-10-01 13:00:00 13.9 4 Noroeste 10 Oeste 0 -- -- 97
2017-10-01 12:00:00 13.8 3 Noroeste 8 Sudoeste 0 -- -- 100
2017-10-01 11:00:00 12.8 3 Oeste 8 Noroeste 0 -- -- 100
2017-10-01 10:00:00 12.5 2 Noroeste 6 Noroeste 0 -- -- 100
2017-10-01 09:00:00 11.9 2 Noroeste 9 Noroeste 0 -- -- 100
2017-10-01 08:00:00 11.6 5 Noroeste 9 Noroeste 0.2 -- -- 100
2017-10-01 07:00:00 11.5 3 Oeste 6 Oeste 0.2 -- -- 100
2017-10-01 06:00:00 11.3 2 Sudoeste 5 Sudeste 0 -- -- 100
2017-10-01 05:00:00 11.4 2 Oeste 8 Oeste 0 -- -- 100
2017-10-01 04:00:00 11.3 0 Calma 8 Sudoeste 0 -- -- 100
2017-10-01 03:00:00 11.3 5 Oeste 10 Oeste 0 -- -- 100
2017-10-01 02:00:00 11.2 0 Calma 6 Oeste 0 -- -- 100
2017-10-01 01:00:00 11.1 0 Calma 11 Noroeste 0 -- -- 100
2017-10-01 00:00:00 11 5 Oeste 15 Oeste 0 -- -- 100
2017-09-30 23:00:00 11.2 7 Oeste 15 Oeste 0 -- -- 99
2017-09-30 22:00:00 11.3 8 Oeste 13 Noroeste 0 -- -- 97
2017-09-30 21:00:00 11.7 6 Oeste 14 Oeste 0 -- -- 94
2017-09-30 20:00:00 12.6 9 Oeste 17 Noroeste 0 -- -- 84
2017-09-30 19:00:00 13.7 7 Oeste 19 Noroeste 0 -- -- 78
2017-09-30 18:00:00 14.8 10 Oeste 19 Oeste 0 -- -- 72
2017-09-30 17:00:00 14.8 8 Noroeste 19 Noroeste 0 -- -- 71
2017-09-30 16:00:00 13.8 10 Oeste 18 Noroeste 0 -- -- 75
2017-09-30 15:00:00 12.4 9 Oeste 20 Oeste 0 -- -- 93
2017-09-30 14:00:00 10.8 7 Oeste 15 Noroeste 0 -- -- 100
2017-09-30 13:00:00 10.8 7 Oeste 12 Oeste 0.2 -- -- 100
2017-09-30 12:00:00 10.4 5 Oeste 12 Oeste 0 -- -- 100
2017-09-30 11:00:00 10.4 7 Oeste 14 Oeste 0 -- -- 100
2017-09-30 10:00:00 10.3 6 Sudoeste 14 Oeste 0 -- -- 100
2017-09-30 09:00:00 10 10 Oeste 14 Sudoeste 0 -- -- 100
2017-09-30 08:00:00 10.4 9 Oeste 14 Oeste 0.2 -- -- 100
2017-09-30 07:00:00 10.9 6 Oeste 12 Sudoeste 0 -- -- 100
2017-09-30 06:00:00 11.2 7 Oeste 11 Oeste 0 -- -- 100
2017-09-30 05:00:00 11.8 3 Sudoeste 7 Oeste 0 -- -- 100
2017-09-30 04:00:00 11.9 0 Calma 5 Noroeste 0 -- -- 100
2017-09-30 03:00:00 11.9 3 Sur 9 Oeste 0 -- -- 100
2017-09-30 02:00:00 11.9 5 Oeste 13 Oeste 0 -- -- 100
2017-09-30 01:00:00 11.9 10 Oeste 16 Oeste 0 -- -- 100
2017-09-30 00:00:00 12.2 8 Oeste 14 Oeste 0 -- -- 100
2017-09-29 23:00:00 12.5 8 Oeste 16 Oeste 0 -- -- 100
2017-09-29 22:00:00 13.3 9 Oeste 17 Noroeste 0 -- -- 99
2017-09-29 21:00:00 14.1 6 Oeste 15 Oeste 0 -- -- 96
2017-09-29 20:00:00 15 6 Oeste 14 Noroeste 0 -- -- 95
2017-09-29 19:00:00 15.8 5 Oeste 16 Oeste 0 -- -- 90
2017-09-29 18:00:00 16.2 7 Oeste 16 Noroeste 0 -- -- 87
2017-09-29 17:00:00 17 7 Oeste 18 Oeste 0 -- -- 88
2017-09-29 16:00:00 16.4 7 Oeste 20 Oeste 0 -- -- 90
2017-09-29 15:00:00 16.5 5 Sudoeste 16 Noroeste 0 -- -- 89
2017-09-29 14:00:00 14.6 6 Sudoeste 19 Sudoeste 0 -- -- 96
2017-09-29 13:00:00 14 13 Sudoeste 22 Sudoeste 0 -- -- 90
2017-09-29 12:00:00 13.6 12 Sudoeste 19 Oeste 0 -- -- 87
2017-09-29 11:00:00 15.6 4 Oeste 16 Sur 0 -- -- 70
2017-09-29 10:00:00 13.9 8 Sudoeste 18 Sudoeste 0 -- -- 70
2017-09-29 09:00:00 13.2 6 Sudoeste 14 Sudoeste 0 -- -- 73
2017-09-29 08:00:00 13.3 5 Sur 16 Sudoeste 0 -- -- 74
2017-09-29 07:00:00 13.7 5 Sur 15 Sudoeste 0 -- -- 72
2017-09-29 06:00:00 14.2 7 Sudoeste 21 Oeste 0 -- -- 70
2017-09-29 05:00:00 14.5 10 Sur 19 Sudoeste 0 -- -- 70
2017-09-29 04:00:00 13.9 5 Sudoeste 18 Sudoeste 0 -- -- 73
2017-09-29 03:00:00 14.3 7 Sudoeste 23 Sudoeste 0 -- -- 72
2017-09-29 02:00:00 14.3 8 Sudoeste 21 Sudoeste 0 -- -- 75
2017-09-29 01:00:00 14.4 7 Sudoeste 18 Sudoeste 0 -- -- 76
2017-09-29 00:00:00 14.9 10 Sudoeste 20 Sudoeste 0 -- -- 78
2017-09-28 23:00:00 15.5 9 Sudoeste 25 Oeste 0 -- -- 77
2017-09-28 22:00:00 16.3 12 Oeste 22 Oeste 0 -- -- 79
2017-09-28 21:00:00 17.7 10 Oeste 21 Sudoeste 0 -- -- 65
2017-09-28 20:00:00 19.1 12 Oeste 26 Oeste 0 -- -- 61
2017-09-28 19:00:00 21.6 10 Oeste 27 Sudoeste 0 -- -- 56
2017-09-28 18:00:00 22.4 7 Oeste 24 Oeste 0 -- -- 52
2017-09-28 17:00:00 22.5 10 Oeste 22 Oeste 0 -- -- 49
2017-09-28 16:00:00 21.4 13 Sudoeste 28 Sudoeste 0 -- -- 52
2017-09-28 15:00:00 21.1 10 Sudoeste 23 Oeste 0 -- -- 53
2017-09-28 14:00:00 20.9 9 Oeste 18 Oeste 0 -- -- 64
2017-09-28 13:00:00 20.4 5 Sur 16 Sur 0 -- -- 58
2017-09-28 12:00:00 18.8 8 Sur 22 Sur 0 -- -- 65
2017-09-28 11:00:00 17 6 Sur 18 Sudeste 0 -- -- 70
2017-09-28 10:00:00 15.7 5 Sudoeste 20 Sur 0 -- -- 69
2017-09-28 09:00:00 14.7 5 Sudoeste 21 Sudoeste 0 -- -- 71
2017-09-28 08:00:00 14.6 10 Sur 20 Sur 0 -- -- 70
2017-09-28 07:00:00 14 6 Sudeste 12 Sudeste 0 -- -- 78
2017-09-28 06:00:00 14.2 7 Sur 10 Sur 0 -- -- 86
2017-09-28 05:00:00 14.1 8 Sur 15 Sur 0 -- -- 88
2017-09-28 04:00:00 14.3 10 Sur 16 Sur 0 -- -- 93
2017-09-28 03:00:00 13.7 6 Sudoeste 9 Sudoeste 0 -- -- 98
2017-09-28 02:00:00 14.4 6 Sur 10 Sudeste 0 -- -- 95
2017-09-28 01:00:00 14 3 Sudeste 8 Sudeste 0 -- -- 99
2017-09-28 00:00:00 14.3 6 Sudoeste 10 Oeste 0 -- -- 99
2017-09-27 23:00:00 14.3 4 Sudoeste 14 Oeste 0 -- -- 95
2017-09-27 22:00:00 15.1 10 Oeste 18 Oeste 0 -- -- 93
2017-09-27 21:00:00 15.7 14 Oeste 21 Oeste 0 -- -- 88
2017-09-27 20:00:00 16.9 10 Oeste 18 Oeste 0 -- -- 84
2017-09-27 19:00:00 19.7 7 Oeste 23 Sudoeste 0 -- -- 68
2017-09-27 18:00:00 20.6 8 Oeste 30 Oeste 0 -- -- 61
2017-09-27 17:00:00 20.6 9 Oeste 23 Noroeste 0 -- -- 60
2017-09-27 16:00:00 20.1 12 Sudoeste 23 Sudoeste 0 -- -- 57
2017-09-27 15:00:00 19.2 11 Oeste 20 Sudoeste 0 -- -- 61
2017-09-27 14:00:00 17.7 12 Oeste 21 Oeste 0 -- -- 67
2017-09-27 13:00:00 17.2 3 Sur 20 Oeste 0 -- -- 69
2017-09-27 12:00:00 15.4 7 Oeste 14 Oeste 0 -- -- 69
2017-09-27 11:00:00 14.4 5 Sudoeste 15 Sudoeste 0 -- -- 68
2017-09-27 10:00:00 13.2 9 Sudoeste 15 Sudoeste 0 -- -- 73
2017-09-27 09:00:00 12.4 7 Sudoeste 18 Sudoeste 0 -- -- 75
2017-09-27 08:00:00 12.8 10 Sudoeste 18 Sudoeste 0 -- -- 73
2017-09-27 07:00:00 12.8 2 Nordeste 11 Sudoeste 0 -- -- 72
2017-09-27 06:00:00 13.1 5 Sur 12 Sudoeste 0 -- -- 69
2017-09-27 05:00:00 12.9 4 Sur 14 Sudoeste 0 -- -- 70
2017-09-27 04:00:00 13.3 6 Sudeste 14 Sudeste 0 -- -- 68
2017-09-27 03:00:00 13.4 3 Sudoeste 16 Sur 0 -- -- 71
2017-09-27 02:00:00 13.3 11 Sur 16 Sudeste 0 -- -- 73
2017-09-27 01:00:00 12.5 9 Sudeste 13 Sur 0 -- -- 81
2017-09-27 00:00:00 11.2 2 Sur 10 Oeste 0 -- -- 84
2017-09-26 23:00:00 12.3 9 Oeste 12 Oeste 0 -- -- 82
2017-09-26 22:00:00 13.2 7 Oeste 15 Noroeste 0 -- -- 83
2017-09-26 21:00:00 13.9 9 Oeste 14 Oeste 0 -- -- 71
2017-09-26 20:00:00 15.8 5 Oeste 15 Oeste 0 -- -- 58
2017-09-26 19:00:00 18.1 8 Oeste 21 Sudoeste 0 -- -- 55
2017-09-26 18:00:00 18.6 10 Oeste 22 Oeste 0 -- -- 55
2017-09-26 17:00:00 18.2 10 Oeste 24 Oeste 0 -- -- 59
2017-09-26 16:00:00 17.5 10 Oeste 24 Sudoeste 0 -- -- 66
2017-09-26 15:00:00 16.4 8 Oeste 19 Oeste 0 -- -- 70
2017-09-26 14:00:00 15.8 7 Oeste 15 Sudoeste 0 -- -- 71
2017-09-26 13:00:00 15.7 4 Oeste 11 Oeste 0 -- -- 72
2017-09-26 12:00:00 14.9 3 Sudeste 12 Sudeste 0 -- -- 78
2017-09-26 11:00:00 12.7 6 Sur 15 Sudeste 0 -- -- 78
2017-09-26 10:00:00 11.6 9 Sur 20 Sur 0 -- -- 81
2017-09-26 09:00:00 10.6 12 Sur 19 Sudeste 0 -- -- 81
2017-09-26 08:00:00 10.2 11 Sur 17 Sur 0 -- -- 81
2017-09-26 07:00:00 10.4 11 Sur 17 Sudeste 0 -- -- 83
2017-09-26 06:00:00 8.9 8 Sudeste 12 Sur 0 -- -- 94
2017-09-26 05:00:00 8.4 0 Calma 6 Este 0 -- -- 98
2017-09-26 04:00:00 8.9 3 Este 8 Este 0 -- -- 99
2017-09-26 03:00:00 9.2 3 Este 10 Este 0 -- -- 100
2017-09-26 02:00:00 9.7 3 Este 11 Sudeste 0 -- -- 100
2017-09-26 01:00:00 9.7 3 Este 12 Nordeste 0 -- -- 100
2017-09-26 00:00:00 10.1 3 Nordeste 10 Este 0 -- -- 99
2017-09-25 23:00:00 10.3 3 Nordeste 12 Nordeste 0 -- -- 99
2017-09-25 22:00:00 11 4 Noroeste 13 Norte 0 -- -- 98
2017-09-25 21:00:00 11.8 8 Noroeste 15 Noroeste 0 -- -- 91
2017-09-25 20:00:00 13.1 7 Noroeste 13 Noroeste 0 -- -- 73
2017-09-25 19:00:00 15.1 5 Noroeste 12 Noroeste 0 -- -- 63
2017-09-25 18:00:00 14.7 6 Noroeste 17 Norte 0 -- -- 69
2017-09-25 17:00:00 15.5 8 Oeste 15 Oeste 0 -- -- 66
2017-09-25 16:00:00 14.1 2 Noroeste 9 Norte 0 -- -- 71
2017-09-25 15:00:00 13.1 5 Norte 13 Oeste 0 -- -- 79
2017-09-25 14:00:00 12.3 6 Oeste 14 Oeste 0 -- -- 84
2017-09-25 13:00:00 11.3 5 Oeste 12 Oeste 0 -- -- 93
2017-09-25 12:00:00 11.5 5 Oeste 12 Oeste 0 -- -- 90
2017-09-25 11:00:00 10.4 5 Oeste 12 Sudoeste 0 -- -- 91
2017-09-25 10:00:00 9.5 6 Noroeste 17 Noroeste 0 -- -- 100
2017-09-25 09:00:00 9.3 9 Oeste 16 Oeste 0 -- -- 100
2017-09-25 08:00:00 9.5 7 Oeste 17 Oeste 0 -- -- 100
2017-09-25 07:00:00 9.5 9 Oeste 20 Sudoeste 0 -- -- 100
2017-09-25 06:00:00 10 5 Oeste 14 Oeste 0 -- -- 100
2017-09-25 05:00:00 10 8 Oeste 23 Oeste 0 -- -- 100
2017-09-25 04:00:00 10.2 3 Sudoeste 13 Sudoeste 0.4 -- -- 100
2017-09-25 03:00:00 10 6 Sudoeste 21 Sudoeste 0 -- -- 100
2017-09-25 02:00:00 10.1 6 Oeste 13 Sudoeste 0 -- -- 97
2017-09-25 01:00:00 9.8 5 Sudoeste 13 Sudoeste 0 -- -- 98
2017-09-25 00:00:00 9.6 7 Sudoeste 17 Oeste 0 -- -- 99
2017-09-24 23:00:00 10.2 9 Oeste 27 Oeste 0 -- -- 100
2017-09-24 22:00:00 10.6 11 Oeste 24 Sudoeste 0.2 -- -- 99
2017-09-24 21:00:00 11.6 7 Oeste 29 Sur 1.4 -- -- 99
2017-09-24 20:00:00 12.4 15 Oeste 41 Sudoeste 8.8 -- -- 98
2017-09-24 19:00:00 14.2 10 Oeste 29 Oeste 0 -- -- 94
2017-09-24 18:00:00 15.8 13 Oeste 29 Sudoeste 0 -- -- 79
2017-09-24 17:00:00 18.4 7 Oeste 21 Sudoeste 0 -- -- 45
2017-09-24 16:00:00 18.9 10 Sudoeste 25 Sudoeste 0 -- -- 36
2017-09-24 15:00:00 18.1 12 Oeste 28 Sudoeste 0 -- -- 32
2017-09-24 14:00:00 19 10 Oeste 23 Oeste 0 -- -- 42
2017-09-24 13:00:00 19.9 8 Sudoeste 22 Oeste 0 -- -- 32
2017-09-24 12:00:00 19 6 Sur 19 Sudoeste 0 -- -- 28
2017-09-24 11:00:00 17.2 10 Sur 26 Sur 0 -- -- 26
2017-09-24 10:00:00 16.3 11 Sur 23 Sudoeste 0 -- -- 23
2017-09-24 09:00:00 15.2 9 Sur 21 Sur 0 -- -- 19
2017-09-24 08:00:00 14.5 8 Sur 15 Sur 0 -- -- 19
2017-09-24 07:00:00 14.5 7 Sudeste 18 Sur 0 -- -- 25
2017-09-24 06:00:00 14.2 9 Sur 19 Sur 0 -- -- 25
2017-09-24 05:00:00 12.8 2 Este 10 Sur 0 -- -- 35
2017-09-24 04:00:00 13.3 3 Noroeste 14 Sur 0 -- -- 35
2017-09-24 03:00:00 13 2 Este 15 Sur 0 -- -- 41
2017-09-24 02:00:00 12.6 7 Sudeste 14 Oeste 0 -- -- 51
2017-09-24 01:00:00 13 2 Nordeste 11 Sur 0 -- -- 51
2017-09-24 00:00:00 13.7 4 Sur 19 Sur 0 -- -- 51
2017-09-23 23:00:00 14 2 Sudeste 10 Sur 0 -- -- 68
2017-09-23 22:00:00 14.3 4 Sur 14 Sudoeste 0 -- -- 66
2017-09-23 21:00:00 13.8 3 Este 17 Oeste 0 -- -- 80
2017-09-23 20:00:00 14.7 11 Oeste 21 Oeste 0 -- -- 81
2017-09-23 19:00:00 16.2 13 Oeste 30 Oeste 0 -- -- 76
2017-09-23 18:00:00 19.5 12 Oeste 36 Sudoeste 0 -- -- 50
2017-09-23 17:00:00 20.5 11 Oeste 25 Sudoeste 0 -- -- 52
2017-09-23 16:00:00 19.9 8 Oeste 23 Oeste 0 -- -- 50
2017-09-23 15:00:00 21 11 Sudoeste 26 Sur 0 -- -- 42
2017-09-23 14:00:00 19.6 8 Sudoeste 23 Oeste 0 -- -- 62
2017-09-23 13:00:00 18.8 9 Sudoeste 20 Sudoeste 0 -- -- 67
2017-09-23 12:00:00 18.8 3 Sur 19 Sur 0 -- -- 66
2017-09-23 11:00:00 17.1 12 Sur 24 Sur 0 -- -- 64
2017-09-23 10:00:00 15 9 Sudeste 22 Sudeste 0 -- -- 72
2017-09-23 09:00:00 13.9 13 Sudeste 23 Sudeste 0 -- -- 73
2017-09-23 08:00:00 13.5 15 Sudeste 24 Sudeste 0 -- -- 74
2017-09-23 07:00:00 13.9 13 Sur 26 Sudeste 0 -- -- 72
2017-09-23 06:00:00 14.2 14 Sur 24 Sur 0 -- -- 72
2017-09-23 05:00:00 14 14 Sur 22 Sudeste 0 -- -- 74
2017-09-23 04:00:00 13.8 14 Sudeste 27 Sudeste 0 -- -- 80
2017-09-23 03:00:00 14.3 10 Sudeste 19 Sudeste 0 -- -- 78
2017-09-23 02:00:00 13.8 9 Sudeste 15 Sudeste 0 -- -- 80
2017-09-23 01:00:00 13.2 8 Sudeste 13 Sudeste 0 -- -- 89
2017-09-23 00:00:00 12.3 4 Sudeste 11 Sudeste 0 -- -- 93